Chem Helen — A8MG4 — position and weather

sailwx.info

Track history (hours):
 
Tides and Currents Weather Stations Pressure Air Temp Water Temp Dewpoint Dewpoint Depression Visibility Wind Speed Wind Dir Waves Ship Positions

Chem Helen

Last reported at 2017-Sep-21 03:06 UTC. Time now 2017-Sep-21 10:47 UTC.
Position N 36°25' E 014°42'.

Length 182 m; draft 7.5 m.

Type: Ship. MMSI: 636013337.

Date/timePositionNaut miles runAvg speedWind from/ knotsBaromVisibWave heightAir tempDewpointWater temp
2017-Sep-21 03:06N 36°25' E 014°42'311.7
2017-Sep-21 02:50N 36°26' E 014°38'412.8
2017-Sep-21 02:30N 36°28' E 014°33'612.9
2017-Sep-21 02:00N 36°30' E 014°26'713.4
2017-Sep-21 01:30N 36°32' E 014°18'713.7
2017-Sep-21 01:00N 36°34' E 014°10'713.7
2017-Sep-21 00:30N 36°36' E 014°01'713.6
2017-Sep-21 00:00N 36°38' E 013°53'713.5
2017-Sep-20 23:30N 36°40' E 013°45'713.6
2017-Sep-20 23:00N 36°42' E 013°37'  
2017-Sep-16 10:45N 37°17' E 009°57'0 0.1
2017-Sep-16 10:30N 37°17' E 009°57'0 0.1
2017-Sep-16 10:00N 37°17' E 009°57'0 0.0
2017-Sep-16 09:30N 37°17' E 009°57'0 0.0
2017-Sep-16 09:00N 37°17' E 009°57'0 0.2
2017-Sep-16 08:24N 37°17' E 009°57'14 5.3
2017-Sep-16 05:51N 37°31' E 009°59'910.4
2017-Sep-16 04:58N 37°38' E 010°06'511.2
2017-Sep-16 04:29N 37°38' E 010°13'4412.0
2017-Sep-16 00:49N 37°29' E 011°07'512.4
2017-Sep-16 00:26N 37°27' E 011°12'512.5
2017-Sep-16 00:00N 37°25' E 011°18'612.5
2017-Sep-15 23:30N 37°22' E 011°26'612.6
2017-Sep-15 23:00N 37°19' E 011°33'612.6
2017-Sep-15 22:30N 37°16' E 011°40'612.4
2017-Sep-15 22:00N 37°13' E 011°47'612.5
2017-Sep-15 21:30N 37°10' E 011°53'612.4
2017-Sep-15 21:00N 37°07' E 012°00'612.3
2017-Sep-15 20:30N 37°04' E 012°07'612.1
2017-Sep-15 19:59N 37°02' E 012°14'612.0
2017-Sep-15 19:30N 37°00' E 012°21'612.0
2017-Sep-15 19:00N 36°58' E 012°28'611.9
2017-Sep-15 18:30N 36°56' E 012°35'612.0
2017-Sep-15 17:58N 36°53' E 012°42'612.2
2017-Sep-15 17:30N 36°51' E 012°49'612.2
2017-Sep-15 17:00N 36°48' E 012°56'812.3
2017-Sep-15 16:21N 36°46' E 013°05'1412.3
2017-Sep-15 15:14N 36°41' E 013°21'312.0
2017-Sep-15 14:58N 36°40' E 013°25'912.1
2017-Sep-15 14:13N 36°36' E 013°36'312.1
2017-Sep-15 14:00N 36°35' E 013°38'612.1
2017-Sep-15 13:30N 36°33' E 013°45'712.2
2017-Sep-15 12:56N 36°31' E 013°53'512.2
2017-Sep-15 12:30N 36°29' E 013°60'611.9
2017-Sep-15 11:59N 36°27' E 014°07'611.9
2017-Sep-15 11:30N 36°25' E 014°14'611.9
2017-Sep-15 11:00N 36°22' E 014°20'611.9
2017-Sep-15 10:30N 36°20' E 014°27'612.1
2017-Sep-15 10:00N 36°18' E 014°34'611.8
2017-Sep-15 09:30N 36°16' E 014°41'612.0
2017-Sep-15 09:00N 36°12' E 014°47'711.9
2017-Sep-15 08:25N 36°09' E 014°55'511.6
2017-Sep-15 08:00N 36°06' E 014°60'611.7
2017-Sep-15 07:30N 36°03' E 015°05'611.9
2017-Sep-15 07:00N 35°60' E 015°12'712.0
2017-Sep-15 06:26N 35°56' E 015°19'512.3
2017-Sep-15 06:00N 35°53' E 015°24'612.4
2017-Sep-15 05:29N 35°50' E 015°31'612.5
2017-Sep-15 05:00N 35°46' E 015°37'612.3
2017-Sep-15 04:30N 35°43' E 015°43'611.9
2017-Sep-15 04:00N 35°39' E 015°49'611.8
2017-Sep-15 03:29N 35°37' E 015°56'711.8
2017-Sep-15 02:55N 35°35' E 016°04'12611.9
2017-Sep-14 16:19N 34°51' E 018°28'  
Track history (hours):
 
Tides and Currents Weather Stations Pressure Air Temp Water Temp Dewpoint Dewpoint Depression Visibility Wind Speed Wind Dir Waves Ship Positions

Chem Helen

Last reported at 2017-Sep-21 03:06 UTC. Time now 2017-Sep-21 10:47 UTC.
Position N 36°25' E 014°42'.

Length 182 m; draft 7.5 m.

Type: Ship. MMSI: 636013337.

Date/timePositionNaut miles runAvg speedWind from/ knotsBaromVisibWave heightAir tempDewpointWater temp
2017-Sep-21 03:06N 36°25' E 014°42'311.7
2017-Sep-21 02:50N 36°26' E 014°38'412.8
2017-Sep-21 02:30N 36°28' E 014°33'612.9
2017-Sep-21 02:00N 36°30' E 014°26'713.4
2017-Sep-21 01:30N 36°32' E 014°18'713.7
2017-Sep-21 01:00N 36°34' E 014°10'713.7
2017-Sep-21 00:30N 36°36' E 014°01'713.6
2017-Sep-21 00:00N 36°38' E 013°53'713.5
2017-Sep-20 23:30N 36°40' E 013°45'713.6
2017-Sep-20 23:00N 36°42' E 013°37'  
2017-Sep-16 10:45N 37°17' E 009°57'0 0.1
2017-Sep-16 10:30N 37°17' E 009°57'0 0.1
2017-Sep-16 10:00N 37°17' E 009°57'0 0.0
2017-Sep-16 09:30N 37°17' E 009°57'0 0.0
2017-Sep-16 09:00N 37°17' E 009°57'0 0.2
2017-Sep-16 08:24N 37°17' E 009°57'14 5.3
2017-Sep-16 05:51N 37°31' E 009°59'910.4
2017-Sep-16 04:58N 37°38' E 010°06'511.2
2017-Sep-16 04:29N 37°38' E 010°13'4412.0
2017-Sep-16 00:49N 37°29' E 011°07'512.4
2017-Sep-16 00:26N 37°27' E 011°12'512.5
2017-Sep-16 00:00N 37°25' E 011°18'612.5
2017-Sep-15 23:30N 37°22' E 011°26'612.6
2017-Sep-15 23:00N 37°19' E 011°33'612.6
2017-Sep-15 22:30N 37°16' E 011°40'612.4
2017-Sep-15 22:00N 37°13' E 011°47'612.5
2017-Sep-15 21:30N 37°10' E 011°53'612.4
2017-Sep-15 21:00N 37°07' E 012°00'612.3
2017-Sep-15 20:30N 37°04' E 012°07'612.1
2017-Sep-15 19:59N 37°02' E 012°14'612.0
2017-Sep-15 19:30N 37°00' E 012°21'612.0
2017-Sep-15 19:00N 36°58' E 012°28'611.9
2017-Sep-15 18:30N 36°56' E 012°35'612.0
2017-Sep-15 17:58N 36°53' E 012°42'612.2
2017-Sep-15 17:30N 36°51' E 012°49'612.2
2017-Sep-15 17:00N 36°48' E 012°56'812.3
2017-Sep-15 16:21N 36°46' E 013°05'1412.3
2017-Sep-15 15:14N 36°41' E 013°21'312.0
2017-Sep-15 14:58N 36°40' E 013°25'912.1
2017-Sep-15 14:13N 36°36' E 013°36'312.1
2017-Sep-15 14:00N 36°35' E 013°38'612.1
2017-Sep-15 13:30N 36°33' E 013°45'712.2
2017-Sep-15 12:56N 36°31' E 013°53'512.2
2017-Sep-15 12:30N 36°29' E 013°60'611.9
2017-Sep-15 11:59N 36°27' E 014°07'611.9
2017-Sep-15 11:30N 36°25' E 014°14'611.9
2017-Sep-15 11:00N 36°22' E 014°20'611.9
2017-Sep-15 10:30N 36°20' E 014°27'612.1
2017-Sep-15 10:00N 36°18' E 014°34'611.8
2017-Sep-15 09:30N 36°16' E 014°41'612.0
2017-Sep-15 09:00N 36°12' E 014°47'711.9
2017-Sep-15 08:25N 36°09' E 014°55'511.6
2017-Sep-15 08:00N 36°06' E 014°60'611.7
2017-Sep-15 07:30N 36°03' E 015°05'611.9
2017-Sep-15 07:00N 35°60' E 015°12'712.0
2017-Sep-15 06:26N 35°56' E 015°19'512.3
2017-Sep-15 06:00N 35°53' E 015°24'612.4
2017-Sep-15 05:29N 35°50' E 015°31'612.5
2017-Sep-15 05:00N 35°46' E 015°37'612.3
2017-Sep-15 04:30N 35°43' E 015°43'611.9
2017-Sep-15 04:00N 35°39' E 015°49'611.8
2017-Sep-15 03:29N 35°37' E 015°56'711.8
2017-Sep-15 02:55N 35°35' E 016°04'12611.9
2017-Sep-14 16:19N 34°51' E 018°28'  

Dump ship's entire track history